MyWebLog Booking Liste

 

Nyhetsmelding

Kopirett © 2014 Værnes Flyklubb. Alle rettigheter reservert.
Joomla! er fri programvare utgitt under GNU/GPL License.
 

METAR

ENVA 311250Z 12006KT CAVOK 04/01 Q1022 NOSIG RMK WIND 670FT 10010KT

TAF ENVA 3112/0112 12007KT CAVOK TEMPO 3115/0112 16015G25KT